createdAt,value
2019-01-24T00:00:07.303Z,93.67
2019-01-24T00:02:34.370Z,101.77
2019-01-24T00:05:01.440Z,105.83
2019-01-24T00:07:28.484Z,103.65
2019-01-24T00:09:55.519Z,98.62
2019-01-24T00:12:22.556Z,110.90
2019-01-24T00:14:49.610Z,116.08
2019-01-24T00:17:16.649Z,108.67
2019-01-24T00:19:43.730Z,102.62
2019-01-24T00:22:10.768Z,108.87
2019-01-24T00:24:37.801Z,107.80
2019-01-24T00:27:04.835Z,102.27
2019-01-24T00:29:31.870Z,106.83
2019-01-24T00:31:58.909Z,104.95
2019-01-24T00:34:25.967Z,101.53
2019-01-24T00:36:53.001Z,107.50
2019-01-24T00:39:20.035Z,112.35
2019-01-24T00:41:47.071Z,127.82
2019-01-24T00:44:14.109Z,111.57
2019-01-24T00:46:41.173Z,119.93
2019-01-24T00:49:08.207Z,112.40
2019-01-24T00:51:35.239Z,107.15
2019-01-24T00:54:02.255Z,116.97
2019-01-24T00:56:29.313Z,115.05
2019-01-24T00:58:56.349Z,115.65
2019-01-24T01:01:23.390Z,117.80
2019-01-24T01:03:50.443Z,120.80
2019-01-24T01:06:17.474Z,119.77
2019-01-24T01:08:44.519Z,118.25
2019-01-24T01:11:11.577Z,112.20
2019-01-24T01:13:38.599Z,99.00
2019-01-24T01:16:05.665Z,116.80
2019-01-24T01:18:32.710Z,110.78
2019-01-24T01:20:59.793Z,121.25
2019-01-24T01:23:26.858Z,104.78
2019-01-24T01:25:53.913Z,133.03
2019-01-24T01:28:20.945Z,109.57
2019-01-24T01:30:48.005Z,100.65
2019-01-24T01:33:15.062Z,113.28
2019-01-24T01:35:42.078Z,110.95
2019-01-24T01:38:09.113Z,92.42
2019-01-24T01:40:36.146Z,113.50
2019-01-24T01:43:03.310Z,120.65
2019-01-24T01:45:30.350Z,112.42
2019-01-24T01:47:57.414Z,100.22
2019-01-24T01:50:24.455Z,115.75
2019-01-24T01:52:51.545Z,104.58
2019-01-24T01:55:18.538Z,110.60
2019-01-24T01:57:45.698Z,111.10
2019-01-24T02:00:15.532Z,96.82
2019-01-24T02:02:42.553Z,110.80
2019-01-24T02:05:10.030Z,110.30
2019-01-24T02:07:37.073Z,134.15
2019-01-24T02:10:06.308Z,116.90
2019-01-24T02:12:33.340Z,116.47
2019-01-24T02:15:00.405Z,124.35
2019-01-24T02:17:27.457Z,119.25
2019-01-24T02:19:54.537Z,111.72
2019-01-24T02:22:21.584Z,113.00
2019-01-24T02:24:48.604Z,126.60
2019-01-24T02:27:15.650Z,120.45
2019-01-24T02:29:42.683Z,121.75
2019-01-24T02:32:09.714Z,118.70
2019-01-24T02:34:36.749Z,133.05
2019-01-24T02:37:03.786Z,127.47
2019-01-24T02:39:30.824Z,108.67
2019-01-24T02:41:57.873Z,113.65
2019-01-24T02:44:24.916Z,122.45
2019-01-24T02:46:51.963Z,124.07
2019-01-24T02:49:18.980Z,135.55
2019-01-24T02:51:46.008Z,127.60
2019-01-24T02:54:13.041Z,128.90
2019-01-24T02:56:40.065Z,123.65
2019-01-24T02:59:07.118Z,133.75
2019-01-24T03:01:34.163Z,125.62
2019-01-24T03:04:01.215Z,135.15
2019-01-24T03:06:28.259Z,133.72
2019-01-24T03:08:55.331Z,114.08
2019-01-24T03:11:22.355Z,121.28
2019-01-24T03:13:49.405Z,122.30
2019-01-24T03:16:16.445Z,122.58
2019-01-24T03:18:43.499Z,121.62
2019-01-24T03:21:10.558Z,139.65
2019-01-24T03:23:37.636Z,117.80
2019-01-24T03:26:04.695Z,130.30
2019-01-24T03:28:31.739Z,116.17
2019-01-24T03:30:58.789Z,132.03
2019-01-24T03:33:25.847Z,121.02
2019-01-24T03:35:52.882Z,132.15
2019-01-24T03:38:19.932Z,120.25
2019-01-24T03:40:46.979Z,128.75
2019-01-24T03:43:14.031Z,122.00
2019-01-24T03:45:41.066Z,114.15
2019-01-24T03:48:08.105Z,123.13
2019-01-24T03:50:35.131Z,120.55
2019-01-24T03:53:02.176Z,124.92
2019-01-24T03:55:29.240Z,111.37
2019-01-24T03:57:56.246Z,126.40
2019-01-24T04:00:23.959Z,124.40
2019-01-24T04:02:50.991Z,137.15
2019-01-24T04:05:18.265Z,149.32
2019-01-24T04:07:45.305Z,121.37
2019-01-24T04:10:16.435Z,145.62
2019-01-24T04:12:43.558Z,132.97
2019-01-24T04:15:12.348Z,117.62
2019-01-24T04:17:39.376Z,133.95
2019-01-24T04:20:06.755Z,136.15
2019-01-24T04:22:33.828Z,144.43
2019-01-24T04:25:00.865Z,143.95
2019-01-24T04:27:27.922Z,132.27
2019-01-24T04:29:54.967Z,123.25
2019-01-24T04:32:22.028Z,135.45
2019-01-24T04:34:49.090Z,137.47
2019-01-24T04:37:16.138Z,129.68
2019-01-24T04:39:43.165Z,137.80
2019-01-24T04:42:10.188Z,135.70
2019-01-24T04:44:37.214Z,144.60
2019-01-24T04:47:04.267Z,138.90
2019-01-24T04:49:31.332Z,137.55
2019-01-24T04:51:58.383Z,143.40
2019-01-24T04:54:25.483Z,136.22
2019-01-24T04:56:52.538Z,153.97
2019-01-24T04:59:19.607Z,136.35
2019-01-24T05:01:46.633Z,151.75
2019-01-24T05:04:13.683Z,148.43
2019-01-24T05:06:40.733Z,144.45
2019-01-24T05:09:07.768Z,145.90
2019-01-24T05:11:34.791Z,140.75
2019-01-24T05:14:01.845Z,136.90
2019-01-24T05:16:28.902Z,151.63
2019-01-24T05:18:55.936Z,152.68
2019-01-24T05:21:23.027Z,135.90
2019-01-24T05:23:50.048Z,142.98
2019-01-24T05:26:17.117Z,138.18
2019-01-24T05:28:44.149Z,143.50
2019-01-24T05:31:11.188Z,137.57
2019-01-24T05:33:38.243Z,144.32
2019-01-24T05:36:05.268Z,130.67
2019-01-24T05:38:32.538Z,132.60
2019-01-24T05:40:59.557Z,132.70
2019-01-24T05:43:26.629Z,139.12
2019-01-24T05:45:53.664Z,137.18
2019-01-24T05:48:20.726Z,131.27
2019-01-24T05:50:47.977Z,141.75
2019-01-24T05:53:15.089Z,151.40
2019-01-24T05:55:42.141Z,179.18
2019-01-24T05:58:09.188Z,164.52
2019-01-24T06:00:39.118Z,122.55
2019-01-24T06:03:06.181Z,134.87
2019-01-24T06:05:33.271Z,124.70
2019-01-24T06:08:00.313Z,128.62
2019-01-24T06:10:27.410Z,115.17
2019-01-24T06:12:54.450Z,118.90
2019-01-24T06:15:21.490Z,111.80
2019-01-24T06:17:48.534Z,117.17
2019-01-24T06:20:15.591Z,123.97
2019-01-24T06:22:42.594Z,124.85
2019-01-24T06:25:09.680Z,120.92
2019-01-24T06:27:36.729Z,132.20
2019-01-24T06:30:04.944Z,119.08
2019-01-24T06:32:31.981Z,120.20
2019-01-24T06:34:59.026Z,127.70
2019-01-24T06:37:26.099Z,115.00
2019-01-24T06:39:53.154Z,115.75
2019-01-24T06:42:20.256Z,122.28
2019-01-24T06:44:47.290Z,134.20
2019-01-24T06:47:14.356Z,131.90
2019-01-24T06:49:41.413Z,128.05
2019-01-24T06:52:08.468Z,130.27
2019-01-24T06:54:35.507Z,116.03
2019-01-24T06:57:02.547Z,140.62
2019-01-24T06:59:29.595Z,121.50
2019-01-24T07:01:56.611Z,120.28
2019-01-24T07:04:23.685Z,139.82
2019-01-24T07:06:50.712Z,122.98
2019-01-24T07:09:17.758Z,126.18
2019-01-24T07:11:44.795Z,131.55
2019-01-24T07:14:11.846Z,119.60
2019-01-24T07:16:38.887Z,153.10
2019-01-24T07:19:05.945Z,137.18
2019-01-24T07:21:33.047Z,121.62
2019-01-24T07:24:00.089Z,123.28
2019-01-24T07:26:27.145Z,136.20
2019-01-24T07:28:54.187Z,137.30
2019-01-24T07:31:21.245Z,149.72
2019-01-24T07:33:48.306Z,142.20
2019-01-24T07:36:15.364Z,145.60
2019-01-24T07:38:42.426Z,134.40
2019-01-24T07:41:09.451Z,138.00
2019-01-24T07:43:36.491Z,132.57
2019-01-24T07:46:03.865Z,151.35
2019-01-24T07:48:30.916Z,131.25
2019-01-24T07:50:57.955Z,140.73
2019-01-24T07:53:25.023Z,141.03
2019-01-24T07:55:52.063Z,144.87
2019-01-24T07:58:19.124Z,143.32
2019-01-24T08:00:46.167Z,132.47
2019-01-24T08:03:14.215Z,133.67
2019-01-24T08:05:41.301Z,156.05
2019-01-24T08:08:08.343Z,131.93
2019-01-24T08:10:35.426Z,139.97
2019-01-24T08:13:02.459Z,147.75
2019-01-24T08:15:29.523Z,144.75
2019-01-24T08:17:56.573Z,156.22
2019-01-24T08:20:24.749Z,141.28
2019-01-24T08:22:51.781Z,151.18
2019-01-24T08:25:18.813Z,150.32
2019-01-24T08:27:45.877Z,154.03
2019-01-24T08:30:17.864Z,141.55
2019-01-24T08:32:44.913Z,127.17
2019-01-24T08:35:11.958Z,133.52
2019-01-24T08:37:39.020Z,118.80
2019-01-24T08:40:07.168Z,147.37
2019-01-24T08:42:34.215Z,140.68
2019-01-24T08:45:01.268Z,142.65
2019-01-24T08:47:28.301Z,121.40
2019-01-24T08:49:55.359Z,129.18
2019-01-24T08:52:22.418Z,146.28
2019-01-24T08:54:49.456Z,127.02
2019-01-24T08:57:16.512Z,120.42
2019-01-24T08:59:43.560Z,116.47
2019-01-24T09:02:10.604Z,117.25
2019-01-24T09:04:37.636Z,141.50
2019-01-24T09:07:04.707Z,117.90
2019-01-24T09:09:31.754Z,125.38
2019-01-24T09:11:58.791Z,123.20
2019-01-24T09:14:25.838Z,110.78
2019-01-24T09:16:52.888Z,127.82
2019-01-24T09:19:19.928Z,126.30
2019-01-24T09:21:46.976Z,117.42
2019-01-24T09:24:14.036Z,119.65
2019-01-24T09:26:41.108Z,127.25
2019-01-24T09:29:08.164Z,129.15
2019-01-24T09:31:35.257Z,128.38
2019-01-24T09:34:02.329Z,119.93
2019-01-24T09:36:29.565Z,118.22
2019-01-24T09:38:56.656Z,115.12
2019-01-24T09:41:23.756Z,114.88
2019-01-24T09:43:50.805Z,119.45
2019-01-24T09:46:17.846Z,117.97
2019-01-24T09:48:44.911Z,120.17
2019-01-24T09:51:11.969Z,112.47
2019-01-24T09:53:39.043Z,133.85
2019-01-24T09:56:06.085Z,112.47
2019-01-24T09:58:33.142Z,115.62
2019-01-24T10:01:00.210Z,110.90
2019-01-24T10:03:27.281Z,127.25
2019-01-24T10:05:54.339Z,120.77
2019-01-24T10:08:21.412Z,114.25
2019-01-24T10:10:48.470Z,119.30
2019-01-24T10:13:15.525Z,110.92
2019-01-24T10:15:42.578Z,104.67
2019-01-24T10:18:09.640Z,108.75
2019-01-24T10:20:36.690Z,103.83
2019-01-24T10:23:04.060Z,120.57
2019-01-24T10:25:38.169Z,100.25
2019-01-24T10:28:05.594Z,112.55
2019-01-24T10:30:32.655Z,117.87
2019-01-24T10:32:59.820Z,124.07
2019-01-24T10:35:26.915Z,123.67
2019-01-24T10:37:54.052Z,125.55
2019-01-24T10:40:23.161Z,122.13
2019-01-24T10:42:50.170Z,123.35
2019-01-24T10:45:17.958Z,132.05
2019-01-24T10:47:45.303Z,119.65
2019-01-24T10:50:13.656Z,120.45
2019-01-24T10:52:40.706Z,118.65
2019-01-24T10:55:13.587Z,115.85
2019-01-24T10:57:38.332Z,122.45
2019-01-24T11:00:09.028Z,133.50
2019-01-24T11:02:36.097Z,99.00
2019-01-24T11:05:03.677Z,105.25
2019-01-24T11:07:30.763Z,131.22
2019-01-24T11:09:57.823Z,109.48
2019-01-24T11:12:24.887Z,98.30
2019-01-24T11:14:51.986Z,101.22
2019-01-24T11:17:18.985Z,86.90
2019-01-24T11:19:46.057Z,80.38
2019-01-24T11:22:13.116Z,76.57
2019-01-24T11:24:40.170Z,75.78
2019-01-24T11:27:07.222Z,70.60
2019-01-24T11:29:34.276Z,73.30
2019-01-24T11:32:01.345Z,78.45
2019-01-24T11:34:28.432Z,72.47
2019-01-24T11:36:57.236Z,74.60
2019-01-24T11:39:24.443Z,89.75
2019-01-24T11:41:51.498Z,76.22
2019-01-24T11:44:18.556Z,84.05
2019-01-24T11:46:45.606Z,85.25
2019-01-24T11:49:12.669Z,90.95
2019-01-24T11:51:39.716Z,83.72
2019-01-24T11:54:06.775Z,86.97
2019-01-24T11:56:33.860Z,117.57
2019-01-24T11:59:00.882Z,119.57
2019-01-24T12:01:27.925Z,126.90
2019-01-24T12:03:55.009Z,127.78
2019-01-24T12:06:23.364Z,99.42
2019-01-24T12:08:50.427Z,136.20
2019-01-24T12:11:17.463Z,117.17
2019-01-24T12:13:44.531Z,113.30
2019-01-24T12:16:11.598Z,114.62
2019-01-24T12:19:17.599Z,133.22
2019-01-24T12:21:44.667Z,115.30
2019-01-24T12:24:11.720Z,126.50
2019-01-24T12:26:38.784Z,112.03
2019-01-24T12:29:05.827Z,126.90
2019-01-24T12:31:32.892Z,109.60
2019-01-24T12:33:59.989Z,127.80
2019-01-24T12:36:27.025Z,135.45
2019-01-24T12:38:54.083Z,105.72
2019-01-24T12:41:21.127Z,110.78
2019-01-24T12:43:48.144Z,111.90
2019-01-24T12:46:15.203Z,118.33
2019-01-24T12:48:42.255Z,113.83
2019-01-24T12:51:09.289Z,115.17
2019-01-24T12:53:36.354Z,114.52
2019-01-24T12:56:03.451Z,116.95
2019-01-24T12:58:30.497Z,125.80
2019-01-24T13:00:57.574Z,126.42
2019-01-24T13:03:24.621Z,113.83
2019-01-24T13:05:51.668Z,108.15
2019-01-24T13:08:18.692Z,115.37
2019-01-24T13:10:45.740Z,132.87
2019-01-24T13:13:12.797Z,139.62
2019-01-24T13:15:39.836Z,117.93
2019-01-24T13:18:06.926Z,107.80
2019-01-24T13:20:33.935Z,112.60
2019-01-24T13:23:00.978Z,131.85
2019-01-24T13:25:30.010Z,120.70
2019-01-24T13:27:57.076Z,116.28
2019-01-24T13:30:26.053Z,136.12
2019-01-24T13:32:53.119Z,127.27
2019-01-24T13:35:20.509Z,120.70
2019-01-24T13:37:47.578Z,118.13
2019-01-24T13:40:16.758Z,116.90
2019-01-24T13:42:43.835Z,112.90
2019-01-24T13:45:12.650Z,110.40
2019-01-24T13:47:39.699Z,113.20
2019-01-24T13:50:08.815Z,124.20
2019-01-24T13:52:35.854Z,120.53
2019-01-24T13:55:03.325Z,114.52
2019-01-24T13:57:30.364Z,100.82
2019-01-24T13:59:57.414Z,111.10
2019-01-24T14:02:24.472Z,106.25
2019-01-24T14:04:51.518Z,112.57
2019-01-24T14:07:18.637Z,106.30
2019-01-24T14:09:45.715Z,118.22
2019-01-24T14:12:12.767Z,115.45
2019-01-24T14:14:39.822Z,111.83
2019-01-24T14:17:06.858Z,117.35
2019-01-24T14:19:33.897Z,107.10
2019-01-24T14:22:00.968Z,116.50
2019-01-24T14:24:28.017Z,117.22
2019-01-24T14:26:55.071Z,113.35
2019-01-24T14:29:22.111Z,92.15
2019-01-24T14:31:49.190Z,90.05
2019-01-24T14:34:16.234Z,108.75
2019-01-24T14:36:43.510Z,113.47
2019-01-24T14:39:10.580Z,102.32
2019-01-24T14:41:37.641Z,114.77
2019-01-24T14:44:04.713Z,115.60
2019-01-24T14:46:31.775Z,104.85
2019-01-24T14:48:58.880Z,112.17
2019-01-24T14:51:25.920Z,106.78
2019-01-24T14:53:52.985Z,104.32
2019-01-24T14:56:20.051Z,111.57
2019-01-24T14:58:47.097Z,106.20
2019-01-24T15:01:20.195Z,93.07
2019-01-24T15:03:47.261Z,113.90
2019-01-24T15:06:14.325Z,108.75
2019-01-24T15:08:41.391Z,102.72
2019-01-24T15:11:08.454Z,103.67
2019-01-24T15:13:35.490Z,121.30
2019-01-24T15:16:02.966Z,110.15
2019-01-24T15:18:30.032Z,111.08
2019-01-24T15:20:57.093Z,113.15
2019-01-24T15:23:24.144Z,112.40
2019-01-24T15:25:51.204Z,104.12
2019-01-24T15:28:18.273Z,125.92
2019-01-24T15:30:45.377Z,104.53
2019-01-24T15:33:12.442Z,107.00
2019-01-24T15:35:39.516Z,99.20
2019-01-24T15:38:06.618Z,104.97
2019-01-24T15:40:33.695Z,120.40
2019-01-24T15:43:00.938Z,109.05
2019-01-24T15:45:28.105Z,129.78
2019-01-24T15:47:55.435Z,113.22
2019-01-24T15:50:22.837Z,124.42
2019-01-24T15:52:49.945Z,110.15
2019-01-24T15:55:17.204Z,125.78
2019-01-24T15:57:44.413Z,123.28
2019-01-24T16:00:16.946Z,122.22
2019-01-24T16:02:44.002Z,108.32
2019-01-24T16:05:11.095Z,128.45
2019-01-24T16:07:38.169Z,115.17
2019-01-24T16:10:06.830Z,119.70
2019-01-24T16:12:33.894Z,131.22
2019-01-24T16:15:01.003Z,126.87
2019-01-24T16:17:28.103Z,122.92
2019-01-24T16:19:55.156Z,118.65
2019-01-24T16:22:22.235Z,112.88
2019-01-24T16:24:49.298Z,106.17
2019-01-24T16:27:16.350Z,104.45
2019-01-24T16:29:43.433Z,113.85
2019-01-24T16:32:10.557Z,118.33
2019-01-24T16:34:37.675Z,119.22
2019-01-24T16:37:04.744Z,108.70
2019-01-24T16:39:31.828Z,93.42
2019-01-24T16:41:58.900Z,103.07
2019-01-24T16:44:25.987Z,114.97
2019-01-24T16:46:53.118Z,104.80
2019-01-24T16:49:20.343Z,108.67
2019-01-24T16:51:47.460Z,101.00
2019-01-24T16:54:14.529Z,114.82
2019-01-24T16:56:41.926Z,115.67
2019-01-24T16:59:09.013Z,103.10
2019-01-24T17:01:36.079Z,115.22
2019-01-24T17:04:03.534Z,117.72
2019-01-24T17:06:30.673Z,95.77
2019-01-24T17:08:57.789Z,112.97
2019-01-24T17:11:24.935Z,113.03
2019-01-24T17:13:52.048Z,112.08
2019-01-24T17:16:21.205Z,120.62
2019-01-24T17:18:48.305Z,109.67
2019-01-24T17:21:15.460Z,123.40
2019-01-24T17:23:42.565Z,109.60
2019-01-24T17:26:09.699Z,117.62
2019-01-24T17:28:36.804Z,139.32
2019-01-24T17:31:04.251Z,114.80
2019-01-24T17:33:32.796Z,124.62
2019-01-24T17:35:59.938Z,112.50
2019-01-24T17:38:27.074Z,131.75
2019-01-24T17:40:54.423Z,142.47
2019-01-24T17:43:21.557Z,131.43
2019-01-24T17:45:48.705Z,122.78
2019-01-24T17:48:16.162Z,112.75
2019-01-24T17:50:43.603Z,108.15
2019-01-24T17:53:10.752Z,131.15
2019-01-24T17:55:40.506Z,133.37
2019-01-24T17:58:09.758Z,122.35
2019-01-24T18:00:39.379Z,124.30
2019-01-24T18:03:06.525Z,131.32
2019-01-24T18:05:35.146Z,132.18
2019-01-24T18:08:02.259Z,119.90
2019-01-24T18:10:29.745Z,118.20
2019-01-24T18:12:57.165Z,135.00
2019-01-24T18:15:30.393Z,113.77
2019-01-24T18:17:57.528Z,114.85
2019-01-24T18:20:29.466Z,118.90
2019-01-24T18:22:56.662Z,123.95
2019-01-24T18:25:23.862Z,117.62
2019-01-24T18:27:51.031Z,122.45
2019-01-24T18:30:21.477Z,128.60
2019-01-24T18:32:49.006Z,127.30
2019-01-24T18:35:16.517Z,125.45
2019-01-24T18:37:44.180Z,129.57
2019-01-24T18:40:14.909Z,132.47
2019-01-24T18:42:45.046Z,127.22
2019-01-24T18:45:15.134Z,120.20
2019-01-24T18:47:42.402Z,120.65
2019-01-24T18:50:14.189Z,127.12
2019-01-24T18:52:41.718Z,127.72
2019-01-24T18:55:17.597Z,129.25
2019-01-24T18:57:47.876Z,120.87
2019-01-24T19:00:20.659Z,128.45
2019-01-24T19:02:48.811Z,135.85
2019-01-24T19:05:16.405Z,124.45
2019-01-24T19:07:46.298Z,135.65
2019-01-24T19:10:14.207Z,115.05
2019-01-24T19:12:41.602Z,133.80
2019-01-24T19:15:13.629Z,110.80
2019-01-24T19:17:41.235Z,124.92
2019-01-24T19:20:09.941Z,117.90
2019-01-24T19:22:37.607Z,121.53
2019-01-24T19:25:06.502Z,119.95
2019-01-24T19:27:33.888Z,126.33
2019-01-24T19:30:02.668Z,125.55
2019-01-24T19:32:30.049Z,128.25
2019-01-24T19:35:06.408Z,135.95
2019-01-24T19:37:34.632Z,138.80
2019-01-24T19:40:04.860Z,126.05
2019-01-24T19:42:32.670Z,134.32
2019-01-24T19:45:01.477Z,122.42
2019-01-24T19:47:29.096Z,121.10
2019-01-24T19:49:57.113Z,129.05
2019-01-24T19:52:29.296Z,130.40
2019-01-24T19:54:56.770Z,128.07
2019-01-24T19:57:24.903Z,129.15
2019-01-24T19:59:52.532Z,114.15
2019-01-24T20:02:21.827Z,125.92
2019-01-24T20:04:49.370Z,129.97
2019-01-24T20:07:18.657Z,135.70
2019-01-24T20:09:50.043Z,129.30
2019-01-24T20:12:21.910Z,132.55
2019-01-24T20:14:49.894Z,127.87
2019-01-24T20:17:21.591Z,117.30
2019-01-24T20:19:51.259Z,125.70
2019-01-24T20:22:18.642Z,128.75
2019-01-24T20:24:46.325Z,120.15
2019-01-24T20:27:16.310Z,126.00
2019-01-24T20:29:43.821Z,115.32
2019-01-24T20:32:13.478Z,120.45
2019-01-24T20:34:41.414Z,124.35
2019-01-24T20:37:11.686Z,121.17
2019-01-24T20:39:40.292Z,118.72
2019-01-24T20:42:07.840Z,114.37
2019-01-24T20:44:35.083Z,116.05
2019-01-24T20:47:05.031Z,129.90
2019-01-24T20:49:32.652Z,111.20
2019-01-24T20:52:03.268Z,106.43
2019-01-24T20:54:32.840Z,111.83
2019-01-24T20:57:00.613Z,120.25
2019-01-24T20:59:27.808Z,120.87
2019-01-24T21:01:55.299Z,123.30
2019-01-24T21:04:22.549Z,116.20
2019-01-24T21:06:49.681Z,120.62
2019-01-24T21:09:17.101Z,108.22
2019-01-24T21:11:44.247Z,121.30
2019-01-24T21:14:12.959Z,117.05
2019-01-24T21:16:42.009Z,114.42
2019-01-24T21:19:09.158Z,130.70
2019-01-24T21:21:36.303Z,126.85
2019-01-24T21:24:03.754Z,120.95
2019-01-24T21:26:30.894Z,124.45
2019-01-24T21:28:58.002Z,120.47
2019-01-24T21:31:25.111Z,121.28
2019-01-24T21:33:52.583Z,131.82
2019-01-24T21:36:22.535Z,125.38
2019-01-24T21:38:49.698Z,130.67
2019-01-24T21:41:16.858Z,118.60
2019-01-24T21:43:43.995Z,130.50
2019-01-24T21:46:11.113Z,129.55
2019-01-24T21:48:38.208Z,123.45
2019-01-24T21:51:11.198Z,132.63
2019-01-24T21:53:34.333Z,116.45
2019-01-24T21:56:01.420Z,108.92
2019-01-24T21:58:28.530Z,132.60
2019-01-24T22:00:55.640Z,117.70
2019-01-24T22:03:22.741Z,116.40
2019-01-24T22:05:49.860Z,116.73
2019-01-24T22:08:16.957Z,112.35
2019-01-24T22:10:44.037Z,114.45
2019-01-24T22:13:11.159Z,124.72
2019-01-24T22:15:38.251Z,116.00
2019-01-24T22:18:05.620Z,131.93
2019-01-24T22:20:32.711Z,115.45
2019-01-24T22:22:59.770Z,114.95
2019-01-24T22:25:29.104Z,116.80
2019-01-24T22:27:56.188Z,139.37
2019-01-24T22:30:27.620Z,121.75
2019-01-24T22:32:54.790Z,128.20
2019-01-24T22:35:21.853Z,113.45
2019-01-24T22:37:48.910Z,100.92
2019-01-24T22:40:16.195Z,99.03
2019-01-24T22:42:43.252Z,114.62
2019-01-24T22:45:16.275Z,121.97
2019-01-24T22:47:43.315Z,100.97
2019-01-24T22:50:11.393Z,115.62
2019-01-24T22:52:38.442Z,124.97
2019-01-24T22:55:05.716Z,100.60
2019-01-24T22:57:32.739Z,125.07
2019-01-24T22:59:59.791Z,104.30
2019-01-24T23:02:29.229Z,116.40
2019-01-24T23:04:56.252Z,126.82
2019-01-24T23:07:23.316Z,117.35
2019-01-24T23:09:50.372Z,117.53
2019-01-24T23:12:17.414Z,110.05
2019-01-24T23:14:44.446Z,116.57
2019-01-24T23:17:11.478Z,114.85
2019-01-24T23:19:38.515Z,121.55
2019-01-24T23:22:05.571Z,111.97
2019-01-24T23:24:32.645Z,123.50
2019-01-24T23:26:59.675Z,140.73
2019-01-24T23:29:26.763Z,106.87
2019-01-24T23:31:53.842Z,108.78
2019-01-24T23:34:20.917Z,110.37
2019-01-24T23:36:47.920Z,106.00
2019-01-24T23:39:14.943Z,99.47
2019-01-24T23:41:41.955Z,110.68
2019-01-24T23:44:08.952Z,106.20
2019-01-24T23:46:35.959Z,102.92
2019-01-24T23:49:02.992Z,117.77
2019-01-24T23:51:30.029Z,99.37
2019-01-24T23:53:57.109Z,113.83
2019-01-24T23:56:24.112Z,110.75
2019-01-24T23:58:51.101Z,99.62
